Time;durP1;ratioP1;P1;durP2;ratioP2;P2;SDS_P1;SDS_P2;PMS_P1;PMS_P2;Temp;Humidity;BMP_temperature;BMP_pressure;BME280_temperature;BME280_humidity;BME280_pressure;Samples;Min_cycle;Max_cycle;Signal;HPM_P1;HPM_P2
2022/12/29 00:01:59;;;;;;;2.05;0.28;;;;;;;;;;5304353;28;20115;-72
2022/12/29 00:04:30;;;;;;;0.75;0.25;;;;;;;;;;5303974;28;20392;-71
2022/12/29 00:07:04;;;;;;;1.33;0.20;;;;;;;;;;5304156;28;20038;-72
2022/12/29 00:09:35;;;;;;;0.28;0.10;;;;;;;;;;5304062;28;20456;-71
2022/12/29 00:12:07;;;;;;;0.63;0.10;;;;;;;;;;5304110;28;20020;-72
2022/12/29 00:17:27;;;;;;;0.35;0.10;;;;;;;;;;5303666;28;20357;-72
2022/12/29 00:37:00;;;;;;;1.60;0.17;;;;;;;;;;5303710;28;20082;-73
2022/12/29 00:45:11;;;;;;;0.60;0.20;;;;;;;;;;5303099;28;20139;-72
2022/12/29 00:47:42;;;;;;;1.83;0.30;;;;;;;;;;5302973;28;20127;-72
2022/12/29 00:50:13;;;;;;;1.70;0.20;;;;;;;;;;5303694;28;20296;-71
2022/12/29 00:52:44;;;;;;;1.17;0.30;;;;;;;;;;5302405;28;20448;-72
2022/12/29 00:55:15;;;;;;;0.32;0.20;;;;;;;;;;5303858;28;20023;-72
2022/12/29 00:57:46;;;;;;;0.70;0.20;;;;;;;;;;5302747;28;20020;-72
2022/12/29 01:00:17;;;;;;;1.23;0.50;;;;;;;;;;5303253;28;20266;-72
2022/12/29 01:02:49;;;;;;;0.70;0.30;;;;;;;;;;5303134;28;20273;-72
2022/12/29 01:05:20;;;;;;;0.80;0.40;;;;;;;;;;5303162;28;20032;-72
2022/12/29 01:07:51;;;;;;;1.15;0.40;;;;;;;;;;5302683;28;20027;-72
2022/12/29 01:10:22;;;;;;;1.30;0.30;;;;;;;;;;5303138;28;20016;-72
2022/12/29 01:12:53;;;;;;;0.90;0.43;;;;;;;;;;5303129;28;20319;-72
2022/12/29 01:15:25;;;;;;;1.02;0.30;;;;;;;;;;5302759;28;20024;-72
2022/12/29 01:17:56;;;;;;;0.70;0.30;;;;;;;;;;5302880;28;20031;-72
2022/12/29 01:20:28;;;;;;;1.10;0.38;;;;;;;;;;5302618;28;20068;-72
2022/12/29 01:22:59;;;;;;;1.15;0.40;;;;;;;;;;5302342;28;20266;-71
2022/12/29 01:25:30;;;;;;;0.80;0.40;;;;;;;;;;5302850;28;20028;-71
2022/12/29 01:28:01;;;;;;;1.85;0.30;;;;;;;;;;5302435;28;20266;-71
2022/12/29 01:30:33;;;;;;;0.52;0.20;;;;;;;;;;5302982;28;20012;-71
2022/12/29 01:33:04;;;;;;;1.10;0.30;;;;;;;;;;5302541;28;20016;-72
2022/12/29 01:35:35;;;;;;;2.13;0.20;;;;;;;;;;5302517;28;20066;-72
2022/12/29 01:38:07;;;;;;;0.50;0.20;;;;;;;;;;5302828;28;20033;-71
2022/12/29 01:40:45;;;;;;;0.82;0.20;;;;;;;;;;5302259;28;20016;-71
2022/12/29 01:43:16;;;;;;;1.77;0.20;;;;;;;;;;5302378;28;20016;-71
2022/12/29 01:45:50;;;;;;;1.20;0.20;;;;;;;;;;5302590;28;20377;-71
2022/12/29 01:48:21;;;;;;;0.73;0.10;;;;;;;;;;5302287;28;20125;-72
2022/12/29 01:50:53;;;;;;;0.47;0.10;;;;;;;;;;5302164;28;20448;-71
2022/12/29 01:53:28;;;;;;;1.15;0.20;;;;;;;;;;5302654;28;20043;-71
2022/12/29 01:56:03;;;;;;;1.33;0.28;;;;;;;;;;5301880;28;20024;-71
2022/12/29 01:58:37;;;;;;;1.30;0.10;;;;;;;;;;5302566;28;20024;-71
2022/12/29 02:01:09;;;;;;;0.88;0.20;;;;;;;;;;5302471;28;20020;-71
2022/12/29 02:03:40;;;;;;;0.85;0.10;;;;;;;;;;5301554;28;20032;-71
2022/12/29 02:06:15;;;;;;;2.85;0.20;;;;;;;;;;5302735;28;20020;-71
2022/12/29 02:08:46;;;;;;;1.15;0.10;;;;;;;;;;5302130;28;20012;-71
2022/12/29 02:11:18;;;;;;;0.77;0.20;;;;;;;;;;5302379;28;20016;-71
2022/12/29 02:13:49;;;;;;;1.20;0.20;;;;;;;;;;5302091;28;20184;-71
2022/12/29 02:16:20;;;;;;;1.77;0.20;;;;;;;;;;5302251;28;20450;-71
2022/12/29 02:18:51;;;;;;;1.67;0.20;;;;;;;;;;5301795;28;20467;-71
2022/12/29 02:21:31;;;;;;;2.40;0.20;;;;;;;;;;5302596;28;20285;-72
2022/12/29 02:24:03;;;;;;;1.58;0.20;;;;;;;;;;5301305;28;20027;-71
2022/12/29 02:26:49;;;;;;;3.33;0.20;;;;;;;;;;5302316;28;20054;-73
2022/12/29 02:29:23;;;;;;;1.27;0.20;;;;;;;;;;5302211;28;20262;-72
2022/12/29 02:31:58;;;;;;;1.08;0.10;;;;;;;;;;5301899;28;20024;-71
2022/12/29 02:34:32;;;;;;;1.80;0.20;;;;;;;;;;5302564;28;20436;-71
2022/12/29 02:37:12;;;;;;;1.10;0.15;;;;;;;;;;5305805;28;20032;-71
2022/12/29 02:40:02;;;;;;;0.60;0.10;;;;;;;;;;5305312;28;20069;-71
2022/12/29 02:42:43;;;;;;;3.15;0.22;;;;;;;;;;5306247;28;20036;-72
2022/12/29 02:45:41;;;;;;;2.55;0.20;;;;;;;;;;5305980;28;20024;-72
2022/12/29 02:48:18;;;;;;;0.77;0.10;;;;;;;;;;5282277;28;20377;-72
2022/12/29 02:50:57;;;;;;;1.45;0.20;;;;;;;;;;5305461;28;20020;-72
2022/12/29 02:56:18;;;;;;;2.20;0.20;;;;;;;;;;5306207;28;19991;-71
2022/12/29 02:58:49;;;;;;;1.27;0.20;;;;;;;;;;5304771;28;20531;-72
2022/12/29 03:01:24;;;;;;;0.95;0.10;;;;;;;;;;5305866;28;20070;-71
2022/12/29 03:04:15;;;;;;;0.95;0.10;;;;;;;;;;5305283;28;20114;-72
2022/12/29 03:06:52;;;;;;;1.00;0.10;;;;;;;;;;5304099;28;20056;-72
2022/12/29 03:09:26;;;;;;;0.52;0.10;;;;;;;;;;5305693;28;20028;-72
2022/12/29 03:12:08;;;;;;;0.90;0.20;;;;;;;;;;5305291;28;20048;-72
2022/12/29 03:17:48;;;;;;;1.38;0.10;;;;;;;;;;5305639;28;20028;-72
2022/12/29 03:20:23;;;;;;;3.15;0.20;;;;;;;;;;5305028;28;20023;-72
2022/12/29 03:22:57;;;;;;;2.08;0.20;;;;;;;;;;5305131;28;20379;-72
2022/12/29 03:25:33;;;;;;;2.15;0.10;;;;;;;;;;5304598;28;20027;-72
2022/12/29 03:28:12;;;;;;;2.05;0.60;;;;;;;;;;5304586;28;20020;-72
2022/12/29 03:30:43;;;;;;;;;;;;;;;;;;5305339;28;20045;-72
2022/12/29 03:33:16;;;;;;;1.38;0.17;;;;;;;;;;5305281;28;20369;-72
2022/12/29 03:35:49;;;;;;;1.05;0.10;;;;;;;;;;5304157;28;20265;-72
2022/12/29 03:38:25;;;;;;;1.20;0.17;;;;;;;;;;5305133;28;20016;-72
2022/12/29 03:40:58;;;;;;;1.60;0.10;;;;;;;;;;5304258;28;20016;-72
2022/12/29 03:43:29;;;;;;;1.92;0.10;;;;;;;;;;5304930;28;20024;-71
2022/12/29 03:46:00;;;;;;;3.00;0.20;;;;;;;;;;5303907;28;20043;-72
2022/12/29 03:48:32;;;;;;;1.70;0.20;;;;;;;;;;5304185;28;20024;-72
2022/12/29 03:51:04;;;;;;;2.85;0.43;;;;;;;;;;5304548;28;20044;-72
2022/12/29 03:53:36;;;;;;;1.35;0.20;;;;;;;;;;5304467;28;20061;-72
2022/12/29 03:56:07;;;;;;;2.05;0.20;;;;;;;;;;5304026;28;20115;-71
2022/12/29 03:58:38;;;;;;;1.23;0.20;;;;;;;;;;5304381;28;20024;-72
2022/12/29 04:01:09;;;;;;;3.10;0.10;;;;;;;;;;5304535;28;20073;-72
2022/12/29 04:03:40;;;;;;;1.48;0.10;;;;;;;;;;5303783;28;20020;-73
2022/12/29 04:06:11;;;;;;;2.42;0.20;;;;;;;;;;5304914;28;20039;-71
2022/12/29 04:08:43;;;;;;;1.85;0.20;;;;;;;;;;5303791;28;20008;-72
2022/12/29 04:11:14;;;;;;;2.72;0.20;;;;;;;;;;5303998;28;20147;-71
2022/12/29 04:13:45;;;;;;;2.53;0.20;;;;;;;;;;5304130;28;20020;-72
2022/12/29 04:16:16;;;;;;;1.98;0.20;;;;;;;;;;5303655;28;20028;-72
2022/12/29 04:18:47;;;;;;;1.75;0.28;;;;;;;;;;5304132;28;20019;-72
2022/12/29 04:21:19;;;;;;;2.10;0.30;;;;;;;;;;5304333;28;20024;-72
2022/12/29 04:23:50;;;;;;;1.75;0.20;;;;;;;;;;5303095;28;20027;-72
2022/12/29 04:26:21;;;;;;;2.35;0.20;;;;;;;;;;5304262;28;20047;-72
2022/12/29 04:28:52;;;;;;;2.42;0.93;;;;;;;;;;5303582;28;20265;-72
2022/12/29 04:31:23;;;;;;;1.63;0.20;;;;;;;;;;5303453;28;20479;-71
2022/12/29 04:33:56;;;;;;;2.03;0.20;;;;;;;;;;5303888;28;20077;-71
2022/12/29 04:36:28;;;;;;;1.98;0.20;;;;;;;;;;5303584;28;20039;-71
2022/12/29 04:38:59;;;;;;;4.18;0.30;;;;;;;;;;5303234;28;20032;-71
2022/12/29 04:41:30;;;;;;;2.40;0.20;;;;;;;;;;5304201;28;20110;-72
2022/12/29 04:44:01;;;;;;;2.50;0.30;;;;;;;;;;5303279;28;20028;-71
2022/12/29 04:46:32;;;;;;;3.22;0.20;;;;;;;;;;5302917;28;20499;-72
2022/12/29 04:49:08;;;;;;;2.47;0.20;;;;;;;;;;5303247;28;20027;-71
2022/12/29 04:51:39;;;;;;;3.75;0.30;;;;;;;;;;5302804;28;20031;-72
2022/12/29 04:54:10;;;;;;;3.30;0.30;;;;;;;;;;5303886;28;20049;-71
2022/12/29 04:56:41;;;;;;;4.45;0.30;;;;;;;;;;5302768;28;20056;-72
2022/12/29 04:59:12;;;;;;;2.83;0.28;;;;;;;;;;5302520;28;20020;-72
2022/12/29 05:01:44;;;;;;;3.72;0.17;;;;;;;;;;5303200;28;20039;-71
2022/12/29 05:04:15;;;;;;;5.28;0.57;;;;;;;;;;5303493;28;20032;-72
2022/12/29 05:06:47;;;;;;;4.48;0.40;;;;;;;;;;5302533;28;20033;-71
2022/12/29 05:09:18;;;;;;;2.55;0.22;;;;;;;;;;5303505;28;20020;-72
2022/12/29 05:11:49;;;;;;;3.60;0.45;;;;;;;;;;5302514;28;20016;-72
2022/12/29 05:14:21;;;;;;;3.10;0.38;;;;;;;;;;5302765;28;20028;-72
2022/12/29 05:16:52;;;;;;;3.13;0.30;;;;;;;;;;5302968;28;20035;-71
2022/12/29 05:19:23;;;;;;;3.70;0.30;;;;;;;;;;5302479;28;20455;-73
2022/12/29 05:21:55;;;;;;;2.45;0.30;;;;;;;;;;5302842;28;20380;-72
2022/12/29 05:24:26;;;;;;;5.28;0.40;;;;;;;;;;5302640;28;20081;-71
2022/12/29 05:26:57;;;;;;;3.90;0.30;;;;;;;;;;5302201;28;20131;-72
2022/12/29 05:29:28;;;;;;;3.92;0.30;;;;;;;;;;5302870;28;20460;-72
2022/12/29 05:31:59;;;;;;;2.53;0.30;;;;;;;;;;5302541;28;20463;-73
2022/12/29 05:34:31;;;;;;;4.43;0.50;;;;;;;;;;5302248;28;20032;-73
2022/12/29 05:37:02;;;;;;;2.75;0.30;;;;;;;;;;5302637;28;20027;-73
2022/12/29 05:39:33;;;;;;;2.08;0.30;;;;;;;;;;5302659;28;20044;-73
2022/12/29 05:42:05;;;;;;;2.33;0.25;;;;;;;;;;5302011;28;20016;-72
2022/12/29 05:44:36;;;;;;;1.65;0.20;;;;;;;;;;5302770;28;20533;-73
2022/12/29 05:47:07;;;;;;;3.20;0.20;;;;;;;;;;5302140;28;20131;-73
2022/12/29 05:49:38;;;;;;;4.03;0.30;;;;;;;;;;5301943;28;20032;-74
2022/12/29 05:52:09;;;;;;;3.50;0.20;;;;;;;;;;5302626;28;20016;-73
2022/12/29 05:54:40;;;;;;;2.88;0.30;;;;;;;;;;5301676;28;20143;-73
2022/12/29 05:57:12;;;;;;;4.07;0.38;;;;;;;;;;5302925;28;20433;-73
2022/12/29 05:59:43;;;;;;;1.83;0.47;;;;;;;;;;5301863;28;20047;-73
2022/12/29 06:02:14;;;;;;;2.40;0.28;;;;;;;;;;5302663;28;20020;-73
2022/12/29 06:04:45;;;;;;;3.42;0.40;;;;;;;;;;5302265;28;20059;-73
2022/12/29 06:07:16;;;;;;;2.83;0.20;;;;;;;;;;5302423;28;20026;-72
2022/12/29 06:09:47;;;;;;;2.55;0.20;;;;;;;;;;5304078;28;20023;-72
2022/12/29 06:12:19;;;;;;;1.75;0.15;;;;;;;;;;5306879;28;20467;-71
2022/12/29 06:14:50;;;;;;;2.88;0.20;;;;;;;;;;5306066;28;20066;-72
2022/12/29 06:17:21;;;;;;;4.88;0.50;;;;;;;;;;5306219;28;20020;-72
2022/12/29 06:19:52;;;;;;;4.88;0.20;;;;;;;;;;5306637;28;20035;-73
2022/12/29 06:22:23;;;;;;;3.45;0.20;;;;;;;;;;5306371;28;20032;-72
2022/12/29 06:24:55;;;;;;;3.03;0.20;;;;;;;;;;5305692;28;20179;-71
2022/12/29 06:27:26;;;;;;;3.30;0.40;;;;;;;;;;5306204;28;20020;-72
2022/12/29 06:29:57;;;;;;;4.28;0.20;;;;;;;;;;5305783;28;20024;-71
2022/12/29 06:32:28;;;;;;;1.90;0.28;;;;;;;;;;5306323;28;20027;-72
2022/12/29 06:35:00;;;;;;;3.20;0.30;;;;;;;;;;5305839;28;20028;-72
2022/12/29 06:37:31;;;;;;;3.78;0.30;;;;;;;;;;5305643;28;20016;-71
2022/12/29 06:40:02;;;;;;;4.03;0.47;;;;;;;;;;5306244;28;20026;-72
2022/12/29 06:42:33;;;;;;;2.17;0.20;;;;;;;;;;5306166;28;20059;-72
2022/12/29 06:45:05;;;;;;;2.95;0.30;;;;;;;;;;5305321;28;20066;-71
2022/12/29 06:47:36;;;;;;;1.90;0.30;;;;;;;;;;5305776;28;20590;-72
2022/12/29 06:50:07;;;;;;;5.47;0.43;;;;;;;;;;5305676;28;20027;-72
2022/12/29 06:52:38;;;;;;;3.42;0.30;;;;;;;;;;5305249;28;20359;-72
2022/12/29 06:55:09;;;;;;;4.32;0.70;;;;;;;;;;5306061;28;20028;-73
2022/12/29 06:57:41;;;;;;;2.97;0.60;;;;;;;;;;5305186;28;20059;-73
2022/12/29 07:00:12;;;;;;;5.65;0.43;;;;;;;;;;5306045;28;20425;-72
2022/12/29 07:02:43;;;;;;;10.48;0.68;;;;;;;;;;5305142;28;20020;-72
2022/12/29 07:05:15;;;;;;;2.83;0.40;;;;;;;;;;5305570;28;20484;-72
2022/12/29 07:07:46;;;;;;;4.72;0.30;;;;;;;;;;5305296;28;20043;-72
2022/12/29 07:10:17;;;;;;;5.53;0.47;;;;;;;;;;5305736;28;20024;-71
2022/12/29 07:12:48;;;;;;;4.70;0.47;;;;;;;;;;5304529;28;20012;-72
2022/12/29 07:15:19;;;;;;;4.63;0.50;;;;;;;;;;5305841;28;20020;-73
2022/12/29 07:17:51;;;;;;;3.47;0.32;;;;;;;;;;5304800;28;20035;-73
2022/12/29 07:20:22;;;;;;;4.22;0.40;;;;;;;;;;5304044;28;20016;-73
2022/12/29 07:22:53;;;;;;;5.45;0.40;;;;;;;;;;5305091;28;20032;-72
2022/12/29 07:25:24;;;;;;;6.22;0.50;;;;;;;;;;5304596;28;20056;-72
2022/12/29 07:27:55;;;;;;;5.53;0.63;;;;;;;;;;5304639;28;20464;-72
2022/12/29 07:30:27;;;;;;;2.95;0.30;;;;;;;;;;5304921;28;20039;-73
2022/12/29 07:32:58;;;;;;;4.38;0.47;;;;;;;;;;5304954;28;20023;-73
2022/12/29 07:35:29;;;;;;;5.00;0.57;;;;;;;;;;5304168;28;20130;-74
2022/12/29 07:38:00;;;;;;;4.82;0.50;;;;;;;;;;5304881;28;20460;-72
2022/12/29 07:40:31;;;;;;;5.97;0.60;;;;;;;;;;5304263;28;20032;-73
2022/12/29 07:43:03;;;;;;;7.30;0.50;;;;;;;;;;5304553;28;20047;-73
2022/12/29 07:45:35;;;;;;;3.78;0.38;;;;;;;;;;5304494;28;20024;-72
2022/12/29 07:48:09;;;;;;;5.32;0.40;;;;;;;;;;5303827;28;20484;-72
2022/12/29 07:50:40;;;;;;;4.22;0.40;;;;;;;;;;5304297;28;20042;-72
2022/12/29 07:53:11;;;;;;;4.20;0.40;;;;;;;;;;5304578;28;20012;-72
2022/12/29 07:55:42;;;;;;;4.53;0.50;;;;;;;;;;5303940;28;20069;-73
2022/12/29 07:58:14;;;;;;;3.92;0.40;;;;;;;;;;5304487;28;20028;-71
2022/12/29 08:00:45;;;;;;;6.90;0.50;;;;;;;;;;5303422;28;20065;-71
2022/12/29 08:03:16;;;;;;;7.22;0.52;;;;;;;;;;5304275;28;20519;-72
2022/12/29 08:05:47;;;;;;;10.10;1.25;;;;;;;;;;5303828;28;20050;-71
2022/12/29 08:08:19;;;;;;;6.07;0.52;;;;;;;;;;5293650;28;20012;-71
2022/12/29 08:10:50;;;;;;;5.47;0.50;;;;;;;;;;5281731;28;20110;-71
2022/12/29 08:13:22;;;;;;;6.03;0.40;;;;;;;;;;5282560;28;20027;-71
2022/12/29 08:15:53;;;;;;;5.05;0.40;;;;;;;;;;5292895;28;20489;-72
2022/12/29 08:18:24;;;;;;;5.50;0.50;;;;;;;;;;5303880;28;20070;-72
2022/12/29 08:20:55;;;;;;;6.22;0.40;;;;;;;;;;5303556;28;20031;-71
2022/12/29 08:23:26;;;;;;;4.82;0.50;;;;;;;;;;5302761;28;20012;-71
2022/12/29 08:26:02;;;;;;;5.15;0.50;;;;;;;;;;5303241;28;20475;-72
2022/12/29 08:28:33;;;;;;;4.95;0.70;;;;;;;;;;5303653;28;20413;-71
2022/12/29 08:31:04;;;;;;;3.90;0.65;;;;;;;;;;5303153;28;20024;-72
2022/12/29 08:33:35;;;;;;;3.38;0.50;;;;;;;;;;5303363;28;20020;-71
2022/12/29 08:36:07;;;;;;;5.88;0.50;;;;;;;;;;5303508;28;20129;-72
2022/12/29 08:38:38;;;;;;;3.67;0.40;;;;;;;;;;5302109;28;20397;-73
2022/12/29 08:41:09;;;;;;;7.78;0.70;;;;;;;;;;5303261;28;20491;-71
2022/12/29 08:43:40;;;;;;;4.13;0.63;;;;;;;;;;5302551;28;20032;-72
2022/12/29 08:46:12;;;;;;;5.03;0.55;;;;;;;;;;5303604;28;20463;-71
2022/12/29 08:48:43;;;;;;;3.20;0.32;;;;;;;;;;5303229;28;20016;-72
2022/12/29 08:51:14;;;;;;;7.13;0.80;;;;;;;;;;5302939;28;20059;-70
2022/12/29 08:53:45;;;;;;;5.55;1.15;;;;;;;;;;5302868;28;20036;-70
2022/12/29 08:56:17;;;;;;;7.63;0.70;;;;;;;;;;5303087;28;20455;-71
2022/12/29 08:58:48;;;;;;;7.90;0.73;;;;;;;;;;5302301;28;20059;-70
2022/12/29 09:01:19;;;;;;;5.78;0.50;;;;;;;;;;5302813;28;20429;-69
2022/12/29 09:03:50;;;;;;;4.95;0.45;;;;;;;;;;5302441;28;20027;-69
2022/12/29 09:06:21;;;;;;;6.65;0.45;;;;;;;;;;5302603;28;20027;-69
2022/12/29 09:08:53;;;;;;;5.20;0.50;;;;;;;;;;5302885;28;20012;-69
2022/12/29 09:11:24;;;;;;;7.95;0.70;;;;;;;;;;5302722;28;20020;-69
2022/12/29 09:13:56;;;;;;;5.70;0.70;;;;;;;;;;5302515;28;20057;-69
2022/12/29 09:16:27;;;;;;;4.28;0.38;;;;;;;;;;5302862;28;20069;-71
2022/12/29 09:18:58;;;;;;;4.63;0.60;;;;;;;;;;5302411;28;20049;-70
2022/12/29 09:21:29;;;;;;;7.43;0.60;;;;;;;;;;5302589;28;20353;-71
2022/12/29 09:24:00;;;;;;;7.20;0.60;;;;;;;;;;5302496;28;20035;-70
2022/12/29 09:26:31;;;;;;;5.07;0.40;;;;;;;;;;5302655;28;20099;-71
2022/12/29 09:29:03;;;;;;;4.45;0.73;;;;;;;;;;5302782;28;20144;-71
2022/12/29 09:31:34;;;;;;;4.25;0.52;;;;;;;;;;5302521;28;20043;-70
2022/12/29 09:34:05;;;;;;;4.68;0.40;;;;;;;;;;5302100;28;20031;-71
2022/12/29 09:36:36;;;;;;;4.65;0.45;;;;;;;;;;5302198;28;20104;-70
2022/12/29 09:39:08;;;;;;;5.72;0.77;;;;;;;;;;5302405;28;20269;-70
2022/12/29 09:41:42;;;;;;;4.55;0.60;;;;;;;;;;5301863;28;20540;-71
2022/12/29 09:44:23;;;;;;;3.47;0.40;;;;;;;;;;5302037;28;20371;-71
2022/12/29 09:46:56;;;;;;;4.63;0.57;;;;;;;;;;5301821;28;20583;-70
2022/12/29 09:49:30;;;;;;;4.93;0.43;;;;;;;;;;5302308;28;20031;-70
2022/12/29 09:52:04;;;;;;;3.95;0.50;;;;;;;;;;5302040;28;20035;-71
2022/12/29 09:54:54;;;;;;;5.38;0.50;;;;;;;;;;5301513;28;20027;-70
2022/12/29 09:57:28;;;;;;;3.70;0.40;;;;;;;;;;5302391;28;20105;-70
2022/12/29 10:00:04;;;;;;;7.00;0.80;;;;;;;;;;5302271;28;20142;-70
2022/12/29 10:02:54;;;;;;;5.43;0.57;;;;;;;;;;5301614;28;20020;-71
2022/12/29 10:05:34;;;;;;;5.40;0.60;;;;;;;;;;5301466;28;20118;-71
2022/12/29 10:08:20;;;;;;;2.95;0.50;;;;;;;;;;5301848;28;20034;-71
2022/12/29 10:10:56;;;;;;;4.95;0.50;;;;;;;;;;5302298;28;20020;-71
2022/12/29 10:13:41;;;;;;;4.40;0.50;;;;;;;;;;5302156;28;20057;-71
2022/12/29 10:16:33;;;;;;;2.92;0.38;;;;;;;;;;5301989;28;20107;-70
2022/12/29 10:19:10;;;;;;;6.35;1.05;;;;;;;;;;5301366;28;20032;-70
2022/12/29 10:21:59;;;;;;;7.78;0.75;;;;;;;;;;5301871;28;20445;-70
2022/12/29 10:24:32;;;;;;;5.22;0.60;;;;;;;;;;5296252;28;20089;-69
2022/12/29 10:27:03;;;;;;;5.65;0.60;;;;;;;;;;5300745;28;20077;-69
2022/12/29 10:29:37;;;;;;;3.35;0.50;;;;;;;;;;5301230;28;20410;-69
2022/12/29 10:32:31;;;;;;;5.78;0.70;;;;;;;;;;5301362;28;20012;-70
2022/12/29 10:35:12;;;;;;;7.65;0.50;;;;;;;;;;5301587;28;20031;-69
2022/12/29 10:37:46;;;;;;;6.03;0.50;;;;;;;;;;5301175;28;20375;-70
2022/12/29 10:40:36;;;;;;;5.10;1.27;;;;;;;;;;5300843;28;20036;-69
2022/12/29 10:43:42;;;;;;;4.47;0.45;;;;;;;;;;5280513;28;20472;-69
2022/12/29 10:46:32;;;;;;;5.10;0.60;;;;;;;;;;5216508;28;20480;-69
2022/12/29 10:49:05;;;;;;;7.05;0.90;;;;;;;;;;5277981;28;20138;-69
2022/12/29 10:51:41;;;;;;;3.67;0.90;;;;;;;;;;5280336;28;20074;-69
2022/12/29 10:54:15;;;;;;;6.55;0.68;;;;;;;;;;5280764;28;20016;-69
2022/12/29 10:56:49;;;;;;;3.35;0.70;;;;;;;;;;5282767;28;20460;-68
2022/12/29 10:59:23;;;;;;;7.30;0.50;;;;;;;;;;5284471;28;20379;-68
2022/12/29 11:01:59;;;;;;;5.13;0.50;;;;;;;;;;5284151;28;20021;-68
2022/12/29 11:04:40;;;;;;;6.30;0.52;;;;;;;;;;5284406;28;20032;-69
2022/12/29 11:07:12;;;;;;;6.25;0.93;;;;;;;;;;5284558;28;20403;-70
2022/12/29 11:09:43;;;;;;;7.55;0.50;;;;;;;;;;5284003;28;20062;-69
2022/12/29 11:12:21;;;;;;;7.05;1.02;;;;;;;;;;5284168;28;20099;-70
2022/12/29 11:15:10;;;;;;;6.50;0.75;;;;;;;;;;5283982;28;20063;-69
2022/12/29 11:17:46;;;;;;;5.85;0.60;;;;;;;;;;5283841;28;20024;-69
2022/12/29 11:20:42;;;;;;;5.35;0.63;;;;;;;;;;5284009;28;20111;-69
2022/12/29 11:23:24;;;;;;;6.90;1.02;;;;;;;;;;5284223;28;20021;-69
2022/12/29 11:26:10;;;;;;;4.80;0.95;;;;;;;;;;5283775;28;20051;-69
2022/12/29 11:28:45;;;;;;;9.05;0.70;;;;;;;;;;5283771;28;20033;-71
2022/12/29 11:31:17;;;;;;;10.68;1.38;;;;;;;;;;5283888;28;20020;-69
2022/12/29 11:33:48;;;;;;;8.13;0.60;;;;;;;;;;5283229;28;20028;-70
2022/12/29 11:36:20;;;;;;;8.43;1.15;;;;;;;;;;5284081;28;20078;-70
2022/12/29 11:38:53;;;;;;;6.30;0.75;;;;;;;;;;5283900;28;20491;-70
2022/12/29 11:41:26;;;;;;;8.48;0.88;;;;;;;;;;5283196;28;20011;-71
2022/12/29 11:43:58;;;;;;;7.55;0.85;;;;;;;;;;5283743;28;20056;-70
2022/12/29 11:46:33;;;;;;;6.57;0.60;;;;;;;;;;5283295;28;20059;-70
2022/12/29 11:49:05;;;;;;;5.18;0.52;;;;;;;;;;5283802;28;20028;-70
2022/12/29 11:51:36;;;;;;;8.65;0.82;;;;;;;;;;5283379;28;20499;-70
2022/12/29 11:54:12;;;;;;;8.13;0.70;;;;;;;;;;5283063;28;20020;-70
2022/12/29 11:56:43;;;;;;;7.13;0.60;;;;;;;;;;5283409;28;20614;-69
2022/12/29 11:59:27;;;;;;;9.23;1.30;;;;;;;;;;5283545;28;20024;-69
2022/12/29 12:01:59;;;;;;;5.68;0.80;;;;;;;;;;5282891;28;20095;-69
2022/12/29 12:04:34;;;;;;;7.53;0.73;;;;;;;;;;5283041;28;20032;-69
2022/12/29 12:07:12;;;;;;;11.77;0.80;;;;;;;;;;5283155;28;20463;-69
2022/12/29 12:09:50;;;;;;;7.32;1.00;;;;;;;;;;5282687;28;20021;-69
2022/12/29 12:12:24;;;;;;;6.88;0.88;;;;;;;;;;5283072;28;20055;-69
2022/12/29 12:14:59;;;;;;;7.78;0.60;;;;;;;;;;5282582;28;20152;-69
2022/12/29 12:17:40;;;;;;;5.28;0.70;;;;;;;;;;5283052;28;20098;-69
2022/12/29 12:20:18;;;;;;;11.63;0.98;;;;;;;;;;5283303;28;20062;-69
2022/12/29 12:22:49;;;;;;;8.50;0.70;;;;;;;;;;5282282;28;20021;-70
2022/12/29 12:25:23;;;;;;;8.40;0.82;;;;;;;;;;5282902;28;20031;-70
2022/12/29 12:28:00;;;;;;;7.07;0.95;;;;;;;;;;5282921;28;20380;-70
2022/12/29 12:30:38;;;;;;;5.88;0.70;;;;;;;;;;5282348;28;20020;-69
2022/12/29 12:33:22;;;;;;;5.93;0.60;;;;;;;;;;5282779;28;20119;-69
2022/12/29 12:36:11;;;;;;;9.25;1.02;;;;;;;;;;5282104;28;20024;-69
2022/12/29 12:38:43;;;;;;;13.07;1.02;;;;;;;;;;5282307;28;20058;-69
2022/12/29 12:41:29;;;;;;;5.07;0.60;;;;;;;;;;5282595;28;20029;-69
2022/12/29 12:44:11;;;;;;;4.43;0.60;;;;;;;;;;5281729;28;20043;-70
2022/12/29 12:46:52;;;;;;;4.32;0.60;;;;;;;;;;5282039;28;20048;-69
2022/12/29 12:49:42;;;;;;;5.57;0.68;;;;;;;;;;5282562;28;20020;-70
2022/12/29 12:52:20;;;;;;;7.07;0.57;;;;;;;;;;5282652;28;20029;-69
2022/12/29 12:54:57;;;;;;;4.82;0.98;;;;;;;;;;5282562;28;20019;-69
2022/12/29 12:57:31;;;;;;;7.10;0.60;;;;;;;;;;5281731;28;20020;-70
2022/12/29 13:00:08;;;;;;;6.30;0.95;;;;;;;;;;5282206;28;20470;-71
2022/12/29 13:02:48;;;;;;;5.93;0.75;;;;;;;;;;5281711;28;20012;-70
2022/12/29 13:05:26;;;;;;;4.57;0.50;;;;;;;;;;5282175;28;20040;-70
2022/12/29 13:08:09;;;;;;;4.65;0.57;;;;;;;;;;5282090;28;20016;-70
2022/12/29 13:10:51;;;;;;;5.78;0.90;;;;;;;;;;5281488;28;20034;-71
2022/12/29 13:13:41;;;;;;;4.53;0.60;;;;;;;;;;5282401;28;20078;-70
2022/12/29 13:16:29;;;;;;;10.13;0.93;;;;;;;;;;5282273;28;20361;-70
2022/12/29 13:19:10;;;;;;;5.25;0.60;;;;;;;;;;5280608;28;20019;-70
2022/12/29 13:21:44;;;;;;;7.53;0.82;;;;;;;;;;5281074;28;20414;-69
2022/12/29 13:24:18;;;;;;;7.10;1.20;;;;;;;;;;5281710;28;20107;-70
2022/12/29 13:26:57;;;;;;;7.15;0.70;;;;;;;;;;5280873;28;20024;-70
2022/12/29 13:29:53;;;;;;;8.13;1.20;;;;;;;;;;5281292;28;20111;-70
2022/12/29 13:32:43;;;;;;;4.53;0.57;;;;;;;;;;5281221;28;20436;-70
2022/12/29 13:35:17;;;;;;;8.38;0.70;;;;;;;;;;5281988;28;20027;-70
2022/12/29 13:37:52;;;;;;;5.93;1.15;;;;;;;;;;5281305;28;20039;-70
2022/12/29 13:40:28;;;;;;;10.02;1.10;;;;;;;;;;5281158;28;20009;-70
2022/12/29 13:43:00;;;;;;;8.30;0.68;;;;;;;;;;5281560;28;20027;-70
2022/12/29 13:45:32;;;;;;;5.55;0.80;;;;;;;;;;5281694;28;20477;-70
2022/12/29 13:48:15;;;;;;;4.13;0.55;;;;;;;;;;5280839;28;20072;-70
2022/12/29 13:50:51;;;;;;;4.05;0.40;;;;;;;;;;5280981;28;20020;-70
2022/12/29 13:53:41;;;;;;;4.85;0.70;;;;;;;;;;5281134;28;20031;-70
2022/12/29 13:56:30;;;;;;;7.32;0.70;;;;;;;;;;5282111;28;20024;-70
2022/12/29 13:59:17;;;;;;;6.18;0.60;;;;;;;;;;5281464;28;20024;-70
2022/12/29 14:01:53;;;;;;;5.93;0.63;;;;;;;;;;5280660;28;20024;-70
2022/12/29 14:04:25;;;;;;;4.60;0.40;;;;;;;;;;5280983;28;20020;-70
2022/12/29 14:07:13;;;;;;;7.20;0.88;;;;;;;;;;5281001;28;20013;-70
2022/12/29 14:09:49;;;;;;;4.45;0.70;;;;;;;;;;5280990;28;20017;-70
2022/12/29 14:12:39;;;;;;;6.13;0.50;;;;;;;;;;5281620;28;20427;-70
2022/12/29 14:15:11;;;;;;;6.05;0.63;;;;;;;;;;5281112;28;20020;-70
2022/12/29 14:17:42;;;;;;;6.80;0.60;;;;;;;;;;5280555;28;20024;-70
2022/12/29 14:20:18;;;;;;;6.03;0.50;;;;;;;;;;5281769;28;20016;-70
2022/12/29 14:22:59;;;;;;;7.10;0.70;;;;;;;;;;5280198;28;20056;-70
2022/12/29 14:25:49;;;;;;;7.97;1.13;;;;;;;;;;5281102;28;20086;-70
2022/12/29 14:28:39;;;;;;;4.90;1.05;;;;;;;;;;5280798;28;20025;-71
2022/12/29 14:31:13;;;;;;;9.85;1.20;;;;;;;;;;5284485;28;20375;-71
2022/12/29 14:34:03;;;;;;;6.82;0.90;;;;;;;;;;5284602;28;20080;-70
2022/12/29 14:36:34;;;;;;;8.63;1.50;;;;;;;;;;5284369;28;20055;-72
2022/12/29 14:39:24;;;;;;;6.55;0.95;;;;;;;;;;5284788;28;20460;-70
2022/12/29 14:42:04;;;;;;;6.35;0.60;;;;;;;;;;5284962;28;20757;-70
2022/12/29 14:44:47;;;;;;;7.40;0.60;;;;;;;;;;5284666;28;20035;-70
2022/12/29 14:47:30;;;;;;;8.40;1.50;;;;;;;;;;5284852;28;20483;-69
2022/12/29 14:50:04;;;;;;;7.80;1.10;;;;;;;;;;5284219;28;20029;-70
2022/12/29 14:52:54;;;;;;;5.90;0.65;;;;;;;;;;5284489;28;20465;-70
2022/12/29 14:55:42;;;;;;;8.40;0.50;;;;;;;;;;5284566;28;20028;-70
2022/12/29 14:58:18;;;;;;;4.40;0.55;;;;;;;;;;5284678;28;20349;-69
2022/12/29 15:00:49;;;;;;;5.30;0.63;;;;;;;;;;5284120;28;20432;-69
2022/12/29 15:03:25;;;;;;;5.82;0.57;;;;;;;;;;5283951;28;20020;-71
2022/12/29 15:05:57;;;;;;;5.22;1.00;;;;;;;;;;5284530;28;20032;-70
2022/12/29 15:08:31;;;;;;;4.32;0.50;;;;;;;;;;5284424;28;20020;-70
2022/12/29 15:11:31;;;;;;;7.25;1.00;;;;;;;;;;5284050;28;20024;-70
2022/12/29 15:14:03;;;;;;;7.18;0.93;;;;;;;;;;5270553;28;20036;-69
2022/12/29 15:16:36;;;;;;;8.30;0.60;;;;;;;;;;5284554;28;20020;-70
2022/12/29 15:19:20;;;;;;;2.92;0.40;;;;;;;;;;5283691;28;20013;-71
2022/12/29 15:21:52;;;;;;;3.10;0.60;;;;;;;;;;5284019;28;20111;-70
2022/12/29 15:24:24;;;;;;;2.47;0.55;;;;;;;;;;5283556;28;20115;-70
2022/12/29 15:26:55;;;;;;;3.38;0.52;;;;;;;;;;5284330;28;20529;-70
2022/12/29 15:29:35;;;;;;;3.58;0.38;;;;;;;;;;5283980;28;20040;-70
2022/12/29 15:32:26;;;;;;;2.38;0.30;;;;;;;;;;5283400;28;20037;-69
2022/12/29 15:35:00;;;;;;;1.88;0.20;;;;;;;;;;5283966;28;20025;-69
2022/12/29 15:37:35;;;;;;;3.28;0.32;;;;;;;;;;5284142;28;20482;-70
2022/12/29 15:40:21;;;;;;;1.83;0.20;;;;;;;;;;5283500;28;20013;-70
2022/12/29 15:42:57;;;;;;;2.25;0.20;;;;;;;;;;5282902;28;20112;-70
2022/12/29 15:45:33;;;;;;;3.00;0.35;;;;;;;;;;5283559;28;20041;-69
2022/12/29 15:48:05;;;;;;;2.90;0.30;;;;;;;;;;5283472;28;20045;-69
2022/12/29 15:50:39;;;;;;;2.42;0.40;;;;;;;;;;5283528;28;20028;-69
2022/12/29 15:53:12;;;;;;;2.90;0.50;;;;;;;;;;5283263;28;20025;-69
2022/12/29 15:55:43;;;;;;;1.85;0.30;;;;;;;;;;5282904;28;20434;-69
2022/12/29 15:58:25;;;;;;;2.72;0.30;;;;;;;;;;5283957;28;20029;-69
2022/12/29 16:01:01;;;;;;;2.92;0.32;;;;;;;;;;5282943;28;20024;-69